createdAt,value
2022-12-07T16:02:49.393Z,102765.78
2022-12-07T16:05:17.464Z,102769.22
2022-12-07T16:07:47.639Z,102777.00
2022-12-07T16:10:15.820Z,102794.28
2022-12-07T16:12:43.836Z,102802.03
2022-12-07T16:15:12.590Z,102814.13
2022-12-07T16:17:40.649Z,102818.44
2022-12-07T16:20:11.545Z,102819.25
2022-12-07T16:22:39.722Z,102820.09
2022-12-07T16:25:08.355Z,102815.72
2022-12-07T16:27:36.888Z,102810.50
2022-12-07T16:30:05.999Z,102814.78
2022-12-07T16:32:33.966Z,102813.84
2022-12-07T16:35:02.468Z,102811.22
2022-12-07T16:37:32.039Z,102810.28
2022-12-07T16:40:00.074Z,102809.31
2022-12-07T16:42:28.530Z,102805.81
2022-12-07T16:44:56.612Z,102804.06
2022-12-07T16:47:24.667Z,102804.00
2022-12-07T16:49:53.158Z,102803.06
2022-12-07T16:52:21.837Z,102796.09
2022-12-07T16:54:51.800Z,102797.75
2022-12-07T16:57:24.052Z,102795.13
2022-12-07T16:59:53.313Z,102791.59
2022-12-07T17:02:21.973Z,102790.66
2022-12-07T17:04:50.020Z,102778.44
2022-12-07T17:07:18.068Z,102773.22
2022-12-07T17:09:46.108Z,102768.81
2022-12-07T17:12:15.555Z,102762.69
2022-12-07T17:15:01.214Z,102763.50
2022-12-07T17:17:29.486Z,102768.63
2022-12-07T17:19:57.484Z,102758.19
2022-12-07T17:22:25.598Z,102763.34
2022-12-07T17:24:53.723Z,102751.16
2022-12-07T17:27:23.223Z,102748.50
2022-12-07T17:29:51.321Z,102748.44
2022-12-07T17:32:19.352Z,102739.72
2022-12-07T17:34:47.464Z,102735.34
2022-12-07T17:37:15.496Z,102732.75
2022-12-07T17:39:43.516Z,102728.34
2022-12-07T17:42:29.226Z,102729.13
2022-12-07T17:44:58.821Z,102724.78
2022-12-07T17:47:26.855Z,102721.28
2022-12-07T17:49:54.872Z,102717.81
2022-12-07T17:52:40.118Z,102713.47
2022-12-07T17:55:08.886Z,102713.44
2022-12-07T17:57:37.020Z,102715.16
2022-12-07T18:00:09.903Z,102705.56
2022-12-07T18:02:37.976Z,102707.28
2022-12-07T18:05:06.686Z,102702.91
2022-12-07T18:07:34.830Z,102709.81
2022-12-07T18:10:03.585Z,102708.13
2022-12-07T18:12:31.690Z,102710.72
2022-12-07T18:15:00.400Z,102704.66
2022-12-07T18:17:30.044Z,102705.47
2022-12-07T18:19:58.467Z,102702.88
2022-12-07T18:22:26.675Z,102693.28
2022-12-07T18:24:55.293Z,102696.72
2022-12-07T18:27:23.350Z,102697.56
2022-12-07T18:29:51.465Z,102699.28
2022-12-07T18:32:19.472Z,102696.69
2022-12-07T18:34:48.862Z,102695.78
2022-12-07T18:37:16.834Z,102687.88
2022-12-07T18:39:44.801Z,102679.19
2022-12-07T18:42:12.826Z,102685.28
2022-12-07T18:44:40.841Z,102685.25
2022-12-07T18:47:08.790Z,102684.38
2022-12-07T18:49:36.800Z,102685.25
2022-12-07T18:52:06.528Z,102688.72
2022-12-07T18:54:34.575Z,102677.44
2022-12-07T18:57:02.605Z,102676.59
2022-12-07T18:59:49.693Z,102671.38
2022-12-07T19:02:19.266Z,102667.88
2022-12-07T19:04:47.333Z,102664.41
2022-12-07T19:07:17.424Z,102659.19
2022-12-07T19:09:45.484Z,102657.44
2022-12-07T19:12:14.520Z,102660.06
2022-12-07T19:14:42.972Z,102649.59
2022-12-07T19:17:13.114Z,102644.41
2022-12-07T19:19:43.132Z,102640.94
2022-12-07T19:22:15.672Z,102636.63
2022-12-07T19:24:47.903Z,102633.16
2022-12-07T19:27:17.149Z,102628.75
2022-12-07T19:29:46.041Z,102627.03
2022-12-07T19:32:14.758Z,102621.81
2022-12-07T19:34:44.686Z,102617.47
2022-12-07T19:37:14.223Z,102615.75
2022-12-07T19:39:43.797Z,102613.13
2022-12-07T19:42:13.392Z,102613.16
2022-12-07T19:44:41.654Z,102614.00
2022-12-07T19:47:10.833Z,102603.59
2022-12-07T19:49:38.922Z,102604.47
2022-12-07T19:52:09.124Z,102606.19
2022-12-07T19:54:37.704Z,102593.19
2022-12-07T19:57:07.388Z,102587.97
2022-12-07T19:59:36.977Z,102588.03
2022-12-07T20:02:05.136Z,102588.88
2022-12-07T20:04:35.729Z,102588.06
2022-12-07T20:07:04.448Z,102587.16
2022-12-07T20:09:32.719Z,102584.59
2022-12-07T20:12:18.109Z,102582.84
2022-12-07T20:14:47.823Z,102581.97
2022-12-07T20:17:16.075Z,102575.03
2022-12-07T20:19:48.478Z,102580.25
2022-12-07T20:22:16.801Z,102575.03
2022-12-07T20:24:44.885Z,102572.53
2022-12-07T20:27:13.069Z,102562.16
2022-12-07T20:29:41.154Z,102558.69
2022-12-07T20:32:13.158Z,102555.22
2022-12-07T20:34:43.148Z,102553.50
2022-12-07T20:37:17.126Z,102550.88
2022-12-07T20:39:45.325Z,102547.41
2022-12-07T20:42:30.546Z,102543.06
2022-12-07T20:45:02.990Z,102523.97
2022-12-07T20:47:37.433Z,102521.44
2022-12-07T20:50:06.792Z,102517.09
2022-12-07T20:52:34.937Z,102514.44
2022-12-07T20:55:03.298Z,102517.03
2022-12-07T20:57:31.478Z,102508.38
2022-12-07T20:59:59.552Z,102512.78
2022-12-07T21:02:27.888Z,102505.09
2022-12-07T21:04:57.389Z,102503.44
2022-12-07T21:07:25.438Z,102502.63
2022-12-07T21:09:53.506Z,102507.00
2022-12-07T21:12:21.524Z,102503.50
2022-12-07T21:14:49.625Z,102500.88
2022-12-07T21:17:17.675Z,102507.84
2022-12-07T21:19:45.748Z,102499.16
2022-12-07T21:22:15.214Z,102492.16
2022-12-07T21:24:43.315Z,102491.25
2022-12-07T21:27:11.389Z,102489.50
2022-12-07T21:29:50.901Z,102481.69
2022-12-07T21:32:22.145Z,102475.63
2022-12-07T21:34:50.336Z,102473.91
2022-12-07T21:37:19.851Z,102475.63
2022-12-07T21:39:47.927Z,102474.66
2022-12-07T21:42:15.986Z,102465.13
2022-12-07T21:44:44.054Z,102471.16
2022-12-07T21:47:12.037Z,102465.94
2022-12-07T21:49:40.025Z,102461.56
2022-12-07T21:52:08.033Z,102457.22
2022-12-07T21:54:37.952Z,102456.34
2022-12-07T21:57:05.959Z,102453.78
2022-12-07T21:59:33.943Z,102449.50
2022-12-07T22:02:02.757Z,102444.31
2022-12-07T22:04:30.817Z,102442.59
2022-12-07T22:06:59.405Z,102437.44
2022-12-07T22:09:30.092Z,102424.50
